Time;durP1;ratioP1;P1;durP2;ratioP2;P2;SDS_P1;SDS_P2;PMS_P1;PMS_P2;Temp;Humidity;BMP_temperature;BMP_pressure;BME280_temperature;BME280_humidity;BME280_pressure;Samples;Min_cycle;Max_cycle;Signal;HPM_P1;HPM_P2
2022/06/18 00:00:12;;;;;;;7.80;6.10;;;;;;;12.79;82.03;99214.34;5118240;27;20041;-66
2022/06/18 00:02:37;;;;;;;8.25;6.43;;;;;;;12.78;82.04;99215.34;5099014;27;20381;-67
2022/06/18 00:05:01;;;;;;;7.75;5.75;;;;;;;12.73;81.94;99215.75;5117726;27;20831;-67
2022/06/18 00:07:27;;;;;;;12.85;5.95;;;;;;;12.71;82.29;99215.88;5118163;27;20384;-67
2022/06/18 00:09:58;;;;;;;7.60;6.00;;;;;;;12.74;81.71;99220.13;5120237;27;20459;-67
2022/06/18 00:15:32;;;;;;;8.00;5.97;;;;;;;12.79;82.55;99222.38;5096068;27;20034;-68
2022/06/18 00:17:57;;;;;;;10.63;6.05;;;;;;;12.69;82.24;99217.84;5114925;27;20546;-69
2022/06/18 00:20:24;;;;;;;13.20;6.78;;;;;;;12.69;82.13;99217.84;5101452;27;20034;-66
2022/06/18 00:22:52;;;;;;;9.48;5.97;;;;;;;12.69;82.22;99220.50;5120982;27;20050;-68
2022/06/18 00:25:28;;;;;;;12.85;7.38;;;;;;;12.72;81.73;99222.09;5104689;27;20066;-67
2022/06/18 00:27:52;;;;;;;9.70;6.70;;;;;;;12.68;82.26;99216.13;5128845;27;20039;-70
2022/06/18 00:30:20;;;;;;;7.95;5.80;;;;;;;12.67;82.28;99222.47;5123182;27;20052;-68
2022/06/18 00:32:45;;;;;;;16.13;6.47;;;;;;;12.65;82.40;99220.91;5120027;27;20034;-66
2022/06/18 00:35:12;;;;;;;7.35;5.80;;;;;;;12.65;82.52;99216.41;5100888;27;20473;-68
2022/06/18 00:37:37;;;;;;;14.30;7.07;;;;;;;12.63;82.83;99213.03;5100159;27;20512;-67
2022/06/18 00:40:21;;;;;;;8.20;6.00;;;;;;;12.66;82.49;99223.44;5119073;27;20480;-64
2022/06/18 00:42:46;;;;;;;11.40;7.07;;;;;;;12.63;82.60;99228.22;5100730;27;20509;-67
2022/06/18 00:45:20;;;;;;;15.50;6.93;;;;;;;12.66;82.79;99223.44;5098584;27;20404;-66
2022/06/18 00:47:58;;;;;;;12.75;6.75;;;;;;;12.68;82.92;99232.19;5116897;27;20489;-70
2022/06/18 00:50:28;;;;;;;10.52;6.72;;;;;;;12.65;82.58;99232.44;5116705;27;20506;-71
2022/06/18 00:53:08;;;;;;;10.90;6.18;;;;;;;12.69;82.09;99239.22;5099831;27;20107;-68
2022/06/18 00:55:43;;;;;;;10.95;6.10;;;;;;;12.63;82.08;99238.94;5117873;27;20409;-70
2022/06/18 00:58:07;;;;;;;7.72;5.30;;;;;;;12.61;82.27;99239.06;5099589;27;20034;-67
2022/06/18 01:00:46;;;;;;;9.18;6.15;;;;;;;12.66;82.33;99247.50;5099655;27;20186;-70
2022/06/18 01:03:30;;;;;;;11.52;6.35;;;;;;;12.70;82.41;99253.44;5118276;27;20042;-70
2022/06/18 01:06:28;;;;;;;12.10;6.63;;;;;;;12.72;82.47;99244.31;5100191;27;20098;-70
2022/06/18 01:09:03;;;;;;;11.65;6.10;;;;;;;12.70;81.85;99256.13;5115742;27;20042;-69
2022/06/18 01:11:31;;;;;;;7.25;5.68;;;;;;;12.69;81.62;99254.44;5099287;27;20400;-67
2022/06/18 01:14:00;;;;;;;8.60;6.00;;;;;;;12.65;82.48;99253.84;5099958;27;20125;-69
2022/06/18 01:16:28;;;;;;;8.07;5.85;;;;;;;12.66;82.06;99250.19;5081977;27;20101;-68
2022/06/18 01:18:53;;;;;;;10.05;6.50;;;;;;;12.68;82.15;99264.28;5099348;27;20038;-68
2022/06/18 01:21:32;;;;;;;11.02;6.13;;;;;;;12.78;82.27;99250.09;5099790;27;20900;-68
2022/06/18 01:24:11;;;;;;;8.02;5.50;;;;;;;12.76;82.32;99260.94;5101092;27;20053;-69
2022/06/18 01:26:36;;;;;;;7.78;5.90;;;;;;;12.73;81.86;99255.88;5099315;27;20038;-70
2022/06/18 01:29:02;;;;;;;10.38;5.50;;;;;;;12.74;81.61;99252.22;5103274;27;20392;-72
2022/06/18 01:31:27;;;;;;;9.07;5.95;;;;;;;12.74;81.92;99257.56;5081918;27;20126;-72
2022/06/18 01:33:53;;;;;;;10.75;5.85;;;;;;;12.77;81.31;99267.97;5098120;27;20038;-67
2022/06/18 01:36:21;;;;;;;7.47;5.38;;;;;;;12.77;81.39;99267.13;5080358;27;20531;-68
2022/06/18 01:38:48;;;;;;;9.77;5.75;;;;;;;12.76;81.52;99265.44;5078840;27;20056;-69
2022/06/18 01:44:17;;;;;;;10.02;5.38;;;;;;;12.78;81.15;99261.66;5095778;27;20037;-69
2022/06/18 01:46:45;;;;;;;9.18;5.57;;;;;;;12.79;81.17;99266.03;5116000;27;20412;-70
2022/06/18 01:49:20;;;;;;;9.25;5.60;;;;;;;12.87;81.28;99270.69;5080588;27;20527;-68
2022/06/18 01:51:48;;;;;;;8.25;4.93;;;;;;;12.90;81.06;99279.31;5076955;27;20046;-71
2022/06/18 01:54:25;;;;;;;6.53;5.15;;;;;;;12.95;80.85;99276.25;5105773;27;20066;-72
2022/06/18 01:56:59;;;;;;;8.05;4.65;;;;;;;13.03;80.94;99285.31;5106437;27;20038;-72
2022/06/18 01:59:28;;;;;;;8.77;4.97;;;;;;;13.05;80.27;99286.03;5105430;27;20412;-74
2022/06/18 02:01:56;;;;;;;6.72;4.93;;;;;;;13.08;80.16;99288.44;5098306;27;20038;-66
2022/06/18 02:04:23;;;;;;;6.22;4.72;;;;;;;13.13;79.71;99293.38;5099133;27;20042;-66
2022/06/18 02:06:50;;;;;;;9.13;5.70;;;;;;;13.20;79.36;99289.22;5099160;27;20492;-72
2022/06/18 02:09:39;;;;;;;5.72;4.57;;;;;;;13.35;79.82;99295.03;5117544;27;20042;-72
2022/06/18 02:12:18;;;;;;;8.15;4.70;;;;;;;13.35;79.03;99290.53;5101436;27;20050;-71
2022/06/18 02:14:48;;;;;;;7.70;4.93;;;;;;;13.43;78.29;99296.03;5119415;27;20034;-70
2022/06/18 02:17:17;;;;;;;6.15;4.97;;;;;;;13.48;78.10;99294.81;5100855;27;20054;-70
2022/06/18 02:19:42;;;;;;;8.02;4.38;;;;;;;13.56;77.87;99289.59;5102424;27;20182;-67
2022/06/18 02:22:09;;;;;;;7.10;4.38;;;;;;;13.64;77.65;99296.00;5126009;27;20517;-69
2022/06/18 02:24:34;;;;;;;5.43;4.25;;;;;;;13.71;76.87;99293.59;5127442;27;20068;-69
2022/06/18 02:26:59;;;;;;;5.03;4.38;;;;;;;13.80;76.96;99282.03;5107972;27;20043;-66
2022/06/18 02:29:27;;;;;;;8.20;4.43;;;;;;;13.91;77.07;99289.09;5103793;27;20053;-74
2022/06/18 02:31:53;;;;;;;6.20;4.63;;;;;;;13.98;76.55;99285.75;5097647;27;20042;-74
2022/06/18 02:34:27;;;;;;;5.60;3.75;;;;;;;14.11;75.69;99291.66;5115042;27;20129;-66
2022/06/18 02:36:53;;;;;;;5.55;4.18;;;;;;;14.15;75.64;99285.03;5080604;27;20350;-66
2022/06/18 02:39:51;;;;;;;4.45;3.88;;;;;;;14.35;75.43;99279.66;5115942;27;20139;-66
2022/06/18 02:42:16;;;;;;;5.15;4.00;;;;;;;14.38;74.37;99276.69;5097321;27;20047;-66
2022/06/18 02:44:43;;;;;;;6.15;4.05;;;;;;;14.48;73.81;99280.25;5097806;27;20035;-66
2022/06/18 02:47:11;;;;;;;9.73;4.20;;;;;;;14.53;72.94;99284.22;5097323;27;20443;-65
2022/06/18 02:49:48;;;;;;;6.40;4.25;;;;;;;14.70;73.08;99273.72;5117124;27;20072;-67
2022/06/18 02:52:14;;;;;;;5.88;3.58;;;;;;;14.74;73.02;99277.81;5100162;27;20119;-68
2022/06/18 02:54:40;;;;;;;7.47;3.88;;;;;;;14.81;71.50;99273.53;5082616;27;20587;-67
2022/06/18 02:57:13;;;;;;;5.28;3.70;;;;;;;14.89;70.48;99271.84;5082526;27;20051;-67
2022/06/18 02:59:38;;;;;;;4.63;3.65;;;;;;;14.94;70.18;99270.53;5098255;27;20046;-72
2022/06/18 03:02:05;;;;;;;4.90;3.42;;;;;;;14.99;68.96;99266.44;5099658;27;20064;-74
2022/06/18 03:04:30;;;;;;;4.50;3.60;;;;;;;15.08;69.55;99268.25;5065402;27;20038;-64
2022/06/18 03:06:55;;;;;;;4.03;3.63;;;;;;;15.16;68.46;99259.44;5118680;27;20045;-68
2022/06/18 03:09:24;;;;;;;4.28;3.20;;;;;;;15.24;68.04;99270.28;5098275;27;20077;-69
2022/06/18 03:12:06;;;;;;;4.00;3.28;;;;;;;15.36;67.60;99271.78;5080715;27;20062;-75
2022/06/18 03:14:33;;;;;;;3.33;3.03;;;;;;;15.51;67.58;99281.03;5097175;27;20406;-70
2022/06/18 03:16:59;;;;;;;4.85;3.75;;;;;;;15.62;67.09;99271.97;5097489;27;20058;-70
2022/06/18 03:19:34;;;;;;;5.53;3.35;;;;;;;15.77;66.59;99277.69;5079612;27;20046;-73
2022/06/18 03:22:07;;;;;;;8.70;3.15;;;;;;;15.87;65.70;99275.78;5079642;27;20038;-68
2022/06/18 03:24:33;;;;;;;4.03;3.28;;;;;;;15.98;66.10;99275.53;5079780;27;20042;-67
2022/06/18 03:26:57;;;;;;;3.30;2.83;;;;;;;16.09;65.29;99274.47;5082932;27;20035;-67
2022/06/18 03:29:23;;;;;;;5.95;3.47;;;;;;;16.20;64.78;99275.09;5078475;27;20031;-68
2022/06/18 03:31:48;;;;;;;3.95;3.47;;;;;;;16.29;64.21;99266.09;5079361;27;20050;-70
2022/06/18 03:34:13;;;;;;;3.47;3.08;;;;;;;16.38;63.69;99271.53;5096097;27;20026;-64
2022/06/18 03:36:38;;;;;;;4.00;3.47;;;;;;;16.45;62.80;99272.63;5091960;28;20044;-65
2022/06/18 03:39:04;;;;;;;6.32;3.30;;;;;;;16.57;62.70;99271.38;5112938;27;20039;-65
2022/06/18 03:41:31;;;;;;;4.63;3.13;;;;;;;16.72;62.61;99271.66;5095728;27;20046;-64
2022/06/18 03:43:56;;;;;;;3.60;2.97;;;;;;;16.81;61.15;99266.19;5113987;27;20070;-64
2022/06/18 03:46:22;;;;;;;4.63;3.38;;;;;;;16.93;61.51;99267.59;5113954;27;20045;-65
2022/06/18 03:49:03;;;;;;;3.75;3.05;;;;;;;17.18;62.27;99270.41;5094787;27;20062;-66
2022/06/18 03:51:31;;;;;;;9.18;3.50;;;;;;;17.27;61.11;99264.91;5095603;27;20070;-66
2022/06/18 03:53:57;;;;;;;3.22;2.92;;;;;;;17.41;60.25;99266.16;5115114;27;20398;-64
2022/06/18 03:56:28;;;;;;;4.40;3.25;;;;;;;17.55;59.19;99276.31;5096365;27;20038;-65
2022/06/18 03:58:54;;;;;;;9.07;3.65;;;;;;;17.64;58.47;99267.28;5097248;27;20038;-64
2022/06/18 04:01:30;;;;;;;4.05;2.95;;;;;;;17.82;58.17;99269.03;5101677;27;20046;-64
2022/06/18 04:03:58;;;;;;;6.13;3.10;;;;;;;17.89;57.30;99273.59;5088084;27;20062;-66
2022/06/18 04:06:29;;;;;;;3.50;2.83;;;;;;;17.96;55.87;99276.47;5088373;27;20047;-66
2022/06/18 04:08:56;;;;;;;6.03;3.53;;;;;;;18.05;56.62;99262.00;5088675;27;20075;-64
2022/06/18 04:11:24;;;;;;;4.18;3.65;;;;;;;18.18;56.15;99277.66;5104230;27;20047;-65
2022/06/18 04:13:49;;;;;;;4.72;3.75;;;;;;;18.29;55.52;99271.94;5100644;27;20037;-66
2022/06/18 04:16:29;;;;;;;4.45;3.30;;;;;;;18.42;55.08;99280.41;5100397;27;20041;-64
2022/06/18 04:18:58;;;;;;;5.45;3.50;;;;;;;18.46;55.26;99276.34;5085001;27;20115;-65
2022/06/18 04:21:23;;;;;;;4.82;3.38;;;;;;;18.56;54.35;99274.31;5121147;27;20066;-68
2022/06/18 04:23:48;;;;;;;3.88;3.40;;;;;;;18.59;54.17;99282.13;5102075;27;20046;-68
2022/06/18 04:26:13;;;;;;;4.43;3.65;;;;;;;18.68;54.65;99285.66;5121166;27;20042;-68
2022/06/18 04:28:41;;;;;;;4.13;3.22;;;;;;;18.79;53.51;99286.16;5100697;27;20133;-67
2022/06/18 04:31:13;;;;;;;5.28;3.17;;;;;;;18.89;53.28;99287.81;5101988;27;20031;-68
2022/06/18 04:33:41;;;;;;;3.45;3.13;;;;;;;18.99;52.17;99278.53;5086118;27;20042;-68
2022/06/18 04:36:35;;;;;;;6.55;3.58;;;;;;;19.20;51.92;99289.59;5106594;27;20038;-68
2022/06/18 04:39:05;;;;;;;4.95;3.85;;;;;;;19.39;51.60;99285.69;5084953;27;20073;-68
2022/06/18 04:41:40;;;;;;;3.67;3.00;;;;;;;19.59;50.36;99288.84;5101531;27;20365;-67
2022/06/18 04:44:11;;;;;;;5.30;3.60;;;;;;;19.67;50.04;99293.38;5101896;27;20484;-66
2022/06/18 04:46:37;;;;;;;5.15;3.30;;;;;;;19.84;50.12;99287.72;5087146;27;20038;-67
2022/06/18 04:49:02;;;;;;;5.78;3.38;;;;;;;20.14;49.54;99285.16;5122184;27;20039;-67
2022/06/18 04:51:27;;;;;;;5.18;3.83;;;;;;;20.57;48.31;99289.94;5103187;27;20091;-67
2022/06/18 04:53:53;;;;;;;4.03;3.58;;;;;;;20.98;47.57;99298.56;5121544;27;20051;-67
2022/06/18 04:56:17;;;;;;;5.47;3.13;;;;;;;21.31;46.25;99296.38;5103683;27;20042;-67
2022/06/18 04:58:45;;;;;;;4.13;3.55;;;;;;;21.66;45.83;99296.63;5103006;27;20084;-68
2022/06/18 05:01:16;;;;;;;5.80;4.30;;;;;;;21.93;43.58;99298.63;5099597;27;20049;-69
2022/06/18 05:04:13;;;;;;;5.70;3.92;;;;;;;22.26;43.94;99295.47;5037832;28;20054;-67
2022/06/18 05:06:46;;;;;;;5.20;3.70;;;;;;;22.56;43.35;99302.47;5037571;28;20054;-69
2022/06/18 05:09:16;;;;;;;4.40;3.65;;;;;;;22.90;42.36;99299.03;5037230;28;20134;-70
2022/06/18 05:12:07;;;;;;;2.92;2.67;;;;;;;23.20;40.43;99305.13;4994083;28;20053;-68
2022/06/18 05:14:37;;;;;;;3.75;2.55;;;;;;;23.34;40.14;99298.72;4981296;28;20406;-69
2022/06/18 05:17:26;;;;;;;2.85;2.65;;;;;;;23.61;40.72;99309.78;4977300;28;20516;-69
2022/06/18 05:19:52;;;;;;;7.18;2.67;;;;;;;23.81;39.61;99299.84;4977945;28;20484;-68
2022/06/18 05:22:17;;;;;;;6.97;3.05;;;;;;;23.98;38.85;99298.44;4977497;28;20050;-68
2022/06/18 05:24:43;;;;;;;2.95;2.58;;;;;;;24.15;38.65;99302.47;4978124;28;20108;-68
2022/06/18 05:27:31;;;;;;;2.58;2.38;;;;;;;24.42;38.18;99310.75;4977096;28;20045;-68
2022/06/18 05:29:59;;;;;;;2.90;2.65;;;;;;;24.50;38.52;99307.81;4974959;28;20054;-68
2022/06/18 05:32:34;;;;;;;4.60;2.83;;;;;;;24.69;38.18;99301.56;4974438;28;20074;-67
2022/06/18 05:35:00;;;;;;;3.22;2.22;;;;;;;24.91;37.52;99308.50;4974189;28;20129;-69
2022/06/18 05:37:28;;;;;;;3.40;2.55;;;;;;;25.11;36.61;99308.50;4974520;28;20052;-68
2022/06/18 05:39:53;;;;;;;5.43;2.33;;;;;;;25.31;36.37;99309.31;4995180;28;20053;-69
2022/06/18 05:42:18;;;;;;;7.07;2.22;;;;;;;25.49;36.49;99308.66;5013450;28;20048;-68
2022/06/18 05:44:43;;;;;;;6.80;2.97;;;;;;;25.70;35.56;99310.31;4997039;28;20043;-69
2022/06/18 05:47:14;;;;;;;3.60;2.72;;;;;;;25.90;34.68;99305.59;4980031;28;20045;-68
2022/06/18 05:49:41;;;;;;;4.00;2.47;;;;;;;26.12;34.65;99306.13;5053588;27;20495;-68
2022/06/18 05:52:07;;;;;;;4.38;2.72;;;;;;;26.43;34.79;99299.88;5078020;27;20043;-66
2022/06/18 05:54:32;;;;;;;8.23;2.58;;;;;;;26.81;34.41;99305.31;5077702;27;20046;-67
2022/06/18 05:57:22;;;;;;;2.97;2.38;;;;;;;27.40;32.84;99312.16;5078453;27;20035;-67
2022/06/18 06:00:07;;;;;;;3.10;2.80;;;;;;;28.10;31.74;99312.66;5078588;27;20047;-67
2022/06/18 06:02:37;;;;;;;4.68;3.10;;;;;;;28.57;30.87;99301.88;5077791;27;20088;-66
2022/06/18 06:05:02;;;;;;;3.40;3.10;;;;;;;29.16;29.83;99314.66;5061546;27;20047;-66
2022/06/18 06:07:28;;;;;;;4.28;2.78;;;;;;;29.87;28.20;99311.66;5078054;27;20042;-65
2022/06/18 06:12:37;;;;;;;3.15;2.53;;;;;;;30.91;26.98;99308.72;5077835;27;20050;-66
2022/06/18 06:15:02;;;;;;;5.20;2.58;;;;;;;31.31;26.12;99305.81;5060607;27;20039;-66
2022/06/18 06:17:28;;;;;;;3.33;2.70;;;;;;;31.65;24.84;99310.19;5077684;27;20082;-66
2022/06/18 06:19:58;;;;;;;3.33;3.08;;;;;;;32.09;24.84;99305.53;5095710;27;20075;-67
2022/06/18 06:22:23;;;;;;;3.00;2.80;;;;;;;32.68;24.53;99310.34;5060582;27;20077;-68
2022/06/18 06:24:47;;;;;;;3.30;2.30;;;;;;;33.15;23.62;99314.09;5060145;27;20066;-67
2022/06/18 06:27:12;;;;;;;3.22;2.83;;;;;;;33.44;22.98;99306.31;5096033;27;20035;-67
2022/06/18 06:29:37;;;;;;;2.72;2.53;;;;;;;33.68;21.93;99312.25;5096022;27;20039;-69
2022/06/18 06:32:02;;;;;;;3.55;2.67;;;;;;;34.03;21.37;99311.63;5095769;27;20057;-67
2022/06/18 06:34:28;;;;;;;4.10;2.67;;;;;;;34.36;21.29;99312.31;5077036;27;20143;-67
2022/06/18 06:36:53;;;;;;;3.80;2.90;;;;;;;34.82;20.99;99314.09;5077201;27;20066;-68
2022/06/18 06:39:18;;;;;;;5.32;3.25;;;;;;;35.27;20.17;99312.44;5076811;27;20069;-66
2022/06/18 06:41:43;;;;;;;3.45;3.15;;;;;;;35.63;20.20;99313.22;5095361;27;20035;-67
2022/06/18 06:44:09;;;;;;;9.45;4.30;;;;;;;36.08;19.45;99317.78;5077481;27;20054;-68
2022/06/18 06:46:34;;;;;;;3.53;3.22;;;;;;;36.45;19.26;99316.53;5076962;28;20039;-67
2022/06/18 06:48:59;;;;;;;3.28;3.08;;;;;;;36.79;18.85;99314.66;5095189;27;20057;-67
2022/06/18 06:51:26;;;;;;;4.25;3.30;;;;;;;36.92;18.83;99322.31;5076509;28;20473;-67
2022/06/18 06:53:52;;;;;;;3.95;3.10;;;;;;;37.20;18.18;99322.69;5095381;27;20081;-68
2022/06/18 06:59:03;;;;;;;4.43;4.03;;;;;;;38.45;17.40;99325.19;5095396;27;20417;-68
2022/06/18 07:01:28;;;;;;;3.78;3.47;;;;;;;38.64;17.19;99324.38;5059636;28;20497;-67
2022/06/18 07:03:53;;;;;;;9.60;4.07;;;;;;;37.75;17.55;99329.66;5095668;28;20051;-66
2022/06/18 07:06:18;;;;;;;3.30;3.10;;;;;;;37.48;17.87;99318.22;5094721;28;20042;-67
2022/06/18 07:08:44;;;;;;;7.90;3.78;;;;;;;37.43;17.71;99308.84;5094708;28;20049;-66
2022/06/18 07:11:09;;;;;;;3.92;3.58;;;;;;;38.01;16.99;99319.06;5076768;28;20034;-66
2022/06/18 07:13:34;;;;;;;3.33;3.20;;;;;;;38.45;16.91;99322.41;5076551;28;20099;-67
2022/06/18 07:15:59;;;;;;;3.97;3.63;;;;;;;39.14;16.44;99314.41;5094899;28;20513;-65
2022/06/18 07:18:31;;;;;;;8.18;4.20;;;;;;;39.92;15.92;99316.34;5091157;27;20173;-65
2022/06/18 07:20:57;;;;;;;7.60;5.82;;;;;;;40.52;15.69;99313.38;5096710;27;20046;-66
2022/06/18 07:23:21;;;;;;;9.43;4.47;;;;;;;41.20;15.43;99306.72;5096697;27;20073;-66
2022/06/18 07:25:46;;;;;;;17.17;6.95;;;;;;;41.78;14.73;99305.72;5115121;27;20074;-65
2022/06/18 07:28:11;;;;;;;4.40;4.00;;;;;;;41.78;14.61;99314.94;5097320;27;20471;-66
2022/06/18 07:30:37;;;;;;;4.53;4.22;;;;;;;40.30;15.51;99311.34;5079786;27;20065;-65
2022/06/18 07:33:05;;;;;;;4.57;4.03;;;;;;;40.05;15.68;99314.69;5118389;27;20094;-66
2022/06/18 07:35:34;;;;;;;3.95;3.75;;;;;;;40.76;15.48;99301.91;5084347;27;20046;-65
2022/06/18 07:37:59;;;;;;;4.90;4.18;;;;;;;41.33;14.75;99301.03;5085861;27;20042;-65
2022/06/18 07:40:26;;;;;;;4.95;4.40;;;;;;;41.14;14.97;99305.19;5100402;27;20046;-66
2022/06/18 07:42:53;;;;;;;4.75;4.40;;;;;;;41.05;15.10;99298.69;5100744;27;20038;-66
2022/06/18 07:45:24;;;;;;;6.90;5.90;;;;;;;41.44;14.51;99295.97;5083382;27;20069;-65
2022/06/18 07:47:49;;;;;;;4.65;4.35;;;;;;;40.75;14.39;99295.50;5100398;27;20499;-65
2022/06/18 07:50:15;;;;;;;4.78;4.25;;;;;;;40.32;15.12;99283.91;5118824;27;20039;-66
2022/06/18 07:52:41;;;;;;;4.93;4.43;;;;;;;40.67;14.92;99287.84;5119315;27;20038;-66
2022/06/18 07:55:07;;;;;;;10.52;4.72;;;;;;;41.71;14.00;99302.56;5119119;27;20046;-65
2022/06/18 07:57:32;;;;;;;6.90;5.72;;;;;;;42.74;13.76;99298.03;5118772;27;20046;-66
2022/06/18 07:59:57;;;;;;;5.90;5.55;;;;;;;43.69;12.79;99297.06;5118701;27;20042;-65
2022/06/18 08:02:22;;;;;;;6.28;5.78;;;;;;;44.36;11.95;99299.06;5119311;27;20091;-66
2022/06/18 08:04:47;;;;;;;6.57;6.07;;;;;;;43.75;12.63;99306.97;5119098;27;20062;-65
2022/06/18 08:07:11;;;;;;;4.95;4.65;;;;;;;42.28;13.23;99306.22;5119184;27;20130;-65
2022/06/18 08:09:37;;;;;;;5.75;5.18;;;;;;;40.34;14.88;99290.03;5119231;27;20050;-65
2022/06/18 08:12:03;;;;;;;16.30;13.18;;;;;;;38.12;16.16;99287.22;5099124;27;20083;-65
2022/06/18 08:14:27;;;;;;;5.93;5.35;;;;;;;36.13;18.42;99284.44;5099856;27;20098;-66
2022/06/18 08:16:52;;;;;;;4.43;4.13;;;;;;;34.56;19.45;99276.34;5119067;27;20039;-67
2022/06/18 08:19:17;;;;;;;3.42;3.22;;;;;;;33.26;20.80;99276.34;5100034;27;20049;-67
2022/06/18 08:21:43;;;;;;;4.97;4.50;;;;;;;32.26;21.99;99283.44;5100427;27;20042;-66
2022/06/18 08:24:12;;;;;;;3.90;3.60;;;;;;;31.32;23.03;99289.03;5118721;27;20054;-66
2022/06/18 08:26:39;;;;;;;3.53;3.22;;;;;;;30.47;23.93;99278.22;5099966;27;20039;-66
2022/06/18 08:29:06;;;;;;;3.95;3.15;;;;;;;31.89;23.47;99276.88;5119041;27;20050;-70
2022/06/18 08:31:31;;;;;;;3.88;3.28;;;;;;;34.75;20.77;99280.31;5118298;27;20034;-66
2022/06/18 08:33:57;;;;;;;4.78;4.00;;;;;;;37.56;17.90;99292.56;5099785;27;20046;-67
2022/06/18 08:36:22;;;;;;;4.00;3.70;;;;;;;39.78;16.01;99280.00;5118407;27;20046;-66
2022/06/18 08:38:48;;;;;;;4.45;4.15;;;;;;;41.72;14.61;99281.81;5100273;27;20046;-67
2022/06/18 08:41:22;;;;;;;6.90;4.82;;;;;;;43.52;13.84;99286.72;5099729;27;20421;-67
2022/06/18 08:43:57;;;;;;;21.00;17.40;;;;;;;44.63;12.27;99286.44;5118736;27;20051;-66
2022/06/18 08:46:39;;;;;;;7.00;6.40;;;;;;;45.12;12.00;99295.94;5118253;27;20038;-67
2022/06/18 08:49:27;;;;;;;5.90;5.40;;;;;;;43.12;12.67;99285.31;5118610;27;20133;-68
2022/06/18 08:52:09;;;;;;;4.90;4.50;;;;;;;39.54;15.20;99269.03;5119063;27;20031;-67
2022/06/18 08:54:53;;;;;;;5.93;4.97;;;;;;;37.40;17.34;99278.81;5099549;27;20516;-66
2022/06/18 08:57:43;;;;;;;5.82;4.65;;;;;;;35.88;18.93;99267.94;5117811;27;20370;-66
2022/06/18 09:00:29;;;;;;;5.15;4.45;;;;;;;38.08;17.23;99280.56;5034083;28;20053;-66
2022/06/18 09:02:58;;;;;;;4.47;4.18;;;;;;;40.28;15.26;99277.31;5017578;28;20041;-66
2022/06/18 09:05:45;;;;;;;5.47;4.97;;;;;;;39.92;14.78;99274.44;5034191;28;20076;-66
2022/06/18 09:08:12;;;;;;;6.90;5.20;;;;;;;38.10;16.41;99273.59;5018201;28;20036;-64
2022/06/18 09:10:37;;;;;;;6.45;5.85;;;;;;;36.13;17.72;99270.56;5015455;28;20048;-65
2022/06/18 09:13:08;;;;;;;4.30;4.00;;;;;;;34.52;19.57;99269.72;5034464;28;20036;-65
2022/06/18 09:15:42;;;;;;;4.15;3.83;;;;;;;33.10;20.89;99269.84;5035056;28;20128;-68
2022/06/18 09:18:17;;;;;;;6.47;4.13;;;;;;;31.91;22.63;99264.50;5018944;28;20431;-64
2022/06/18 09:20:51;;;;;;;3.45;3.20;;;;;;;31.29;23.48;99255.66;5039542;28;20435;-64
2022/06/18 09:23:24;;;;;;;4.95;3.25;;;;;;;31.39;23.01;99258.53;5023562;28;20048;-65
2022/06/18 09:25:51;;;;;;;3.88;3.33;;;;;;;33.29;21.58;99256.47;5037411;28;20044;-65
2022/06/18 09:28:33;;;;;;;3.67;3.40;;;;;;;36.33;19.24;99266.91;5019995;28;20490;-65
2022/06/18 09:31:08;;;;;;;4.10;3.35;;;;;;;39.59;15.98;99264.50;5033808;28;20114;-67
2022/06/18 09:33:40;;;;;;;4.80;4.50;;;;;;;42.08;13.17;99268.47;5041042;28;20040;-68
2022/06/18 09:36:18;;;;;;;8.23;7.43;;;;;;;44.19;11.62;99273.84;5047045;27;20046;-67
2022/06/18 09:38:54;;;;;;;6.82;6.22;;;;;;;45.77;11.20;99266.06;5117812;27;20041;-69
2022/06/18 09:41:27;;;;;;;8.32;7.82;;;;;;;47.55;10.20;99275.88;5099462;27;20054;-68
2022/06/18 09:44:00;;;;;;;10.38;9.57;;;;;;;48.75;9.39;99345.06;5117870;27;20049;-69
2022/06/18 09:46:32;;;;;;;11.25;10.55;;;;;;;49.85;8.96;99270.75;5117347;27;20129;-69
2022/06/18 09:48:56;;;;;;;13.15;12.35;;;;;;;50.91;8.03;99271.47;5117998;27;20047;-68
2022/06/18 09:51:33;;;;;;;19.52;18.23;;;;;;;51.80;7.63;99272.38;5117507;27;20053;-70
2022/06/18 09:54:03;;;;;;;16.77;15.85;;;;;;;51.89;7.53;99307.00;5117859;27;20055;-69
2022/06/18 09:56:33;;;;;;;18.65;17.60;;;;;;;50.52;7.53;99261.59;5098526;27;20382;-69
2022/06/18 09:59:04;;;;;;;14.13;13.23;;;;;;;47.65;9.28;99254.72;5099070;27;20039;-69
2022/06/18 10:01:38;;;;;;;10.60;9.88;;;;;;;44.65;11.23;99251.19;5099295;27;20051;-70
2022/06/18 10:06:57;;;;;;;9.85;8.98;;;;;;;38.42;15.46;99239.44;5116818;27;20092;-69
2022/06/18 10:09:28;;;;;;;8.98;6.05;;;;;;;36.35;16.79;99234.09;5098682;27;20049;-72
2022/06/18 10:11:53;;;;;;;8.27;4.38;;;;;;;34.52;18.24;99225.44;5099775;27;20042;-69
2022/06/18 10:14:21;;;;;;;14.15;11.25;;;;;;;33.74;19.03;99227.41;5103907;27;20046;-69
2022/06/18 10:17:23;;;;;;;6.47;5.88;;;;;;;35.93;18.22;99234.63;5118221;27;20045;-67
2022/06/18 10:20:26;;;;;;;6.68;5.50;;;;;;;38.20;15.48;99235.59;5098266;27;20050;-67
2022/06/18 10:23:24;;;;;;;4.78;4.13;;;;;;;37.60;15.05;99244.38;5116459;27;20382;-68
2022/06/18 10:26:29;;;;;;;3.58;3.38;;;;;;;36.01;16.82;99247.88;5116224;27;20042;-68
2022/06/18 10:29:10;;;;;;;5.22;4.50;;;;;;;34.24;18.36;99244.16;5032347;28;20052;-68
2022/06/18 10:31:59;;;;;;;3.53;3.33;;;;;;;32.86;19.76;99240.09;5032430;28;20052;-69
2022/06/18 10:34:38;;;;;;;3.70;3.25;;;;;;;31.28;21.29;99243.78;5033362;28;20597;-70
2022/06/18 10:37:11;;;;;;;3.47;3.25;;;;;;;30.18;22.34;99238.88;5015778;28;20493;-67
2022/06/18 10:39:52;;;;;;;3.97;3.53;;;;;;;29.10;23.36;99233.28;5032897;28;20048;-68
2022/06/18 10:42:20;;;;;;;8.43;3.10;;;;;;;28.60;24.00;99239.16;5032679;28;20418;-69
2022/06/18 10:44:44;;;;;;;3.38;3.08;;;;;;;28.30;24.87;99231.00;5033137;28;20094;-69
2022/06/18 10:47:18;;;;;;;2.90;2.28;;;;;;;28.22;25.08;99236.00;5033174;28;20045;-69
2022/06/18 10:49:42;;;;;;;3.03;2.72;;;;;;;28.04;25.57;99245.03;5015694;28;20040;-68
2022/06/18 10:52:25;;;;;;;3.03;2.75;;;;;;;28.10;26.03;99238.66;5016482;28;20070;-69
2022/06/18 10:55:03;;;;;;;2.75;2.58;;;;;;;27.83;26.42;99240.91;5032975;28;20645;-69
2022/06/18 10:57:28;;;;;;;6.45;2.70;;;;;;;27.72;26.50;99231.56;5032966;28;20040;-70
2022/06/18 10:59:53;;;;;;;2.20;2.10;;;;;;;27.53;27.10;99238.09;4998873;28;20067;-69
2022/06/18 11:02:40;;;;;;;3.28;2.50;;;;;;;27.30;27.88;99235.22;5034562;28;20123;-70
2022/06/18 11:05:19;;;;;;;4.05;2.63;;;;;;;27.02;26.95;99233.81;5034622;27;20062;-69
2022/06/18 11:07:49;;;;;;;2.40;2.25;;;;;;;26.42;27.83;99237.22;5116270;27;20065;-69
2022/06/18 11:10:43;;;;;;;3.30;3.00;;;;;;;26.09;28.13;99226.50;5083611;27;20046;-68
2022/06/18 11:13:40;;;;;;;4.80;2.90;;;;;;;25.70;28.98;99222.94;5116714;27;20038;-69
2022/06/18 11:16:16;;;;;;;2.95;2.40;;;;;;;25.31;29.78;99230.19;5088548;27;21013;-69
2022/06/18 11:18:45;;;;;;;3.08;2.65;;;;;;;24.94;30.71;99223.53;5083735;27;20053;-65
2022/06/18 11:21:17;;;;;;;2.65;2.45;;;;;;;24.70;30.93;99232.38;5101273;27;20043;-66
2022/06/18 11:23:50;;;;;;;4.35;3.08;;;;;;;24.54;31.39;99217.25;5101556;27;20035;-66
2022/06/18 11:26:22;;;;;;;6.43;4.47;;;;;;;24.52;31.24;99221.25;5120248;27;20154;-66
2022/06/18 11:28:51;;;;;;;3.78;3.40;;;;;;;24.74;31.27;99213.69;5084022;27;20038;-65
2022/06/18 11:31:44;;;;;;;6.10;2.70;;;;;;;25.14;30.38;99203.59;5120031;27;20073;-65
2022/06/18 11:34:21;;;;;;;7.85;4.15;;;;;;;25.16;30.83;99215.13;5116771;27;20046;-65
2022/06/18 11:36:52;;;;;;;18.48;6.82;;;;;;;24.93;31.08;99200.06;5119754;27;20117;-66
2022/06/18 11:39:33;;;;;;;6.90;4.10;;;;;;;24.90;31.57;99203.19;5103310;27;20540;-66
2022/06/18 11:42:16;;;;;;;7.07;4.72;;;;;;;24.73;32.04;99198.38;5080754;27;20550;-70
2022/06/18 11:45:03;;;;;;;3.42;3.10;;;;;;;24.61;32.29;99190.00;5099836;27;20050;-70
2022/06/18 11:47:43;;;;;;;8.95;5.45;;;;;;;24.66;31.91;99192.94;5064325;27;20043;-69
2022/06/18 11:50:19;;;;;;;12.30;6.22;;;;;;;24.61;31.81;99190.81;5082982;27;20042;-69
2022/06/18 11:52:49;;;;;;;20.73;14.18;;;;;;;24.58;32.35;99183.09;5099931;27;20058;-66
2022/06/18 11:55:29;;;;;;;10.38;6.90;;;;;;;24.58;31.54;99176.81;5081048;27;20554;-66
2022/06/18 11:58:04;;;;;;;11.60;4.65;;;;;;;24.50;31.74;99179.72;5099067;27;20071;-67
2022/06/18 12:00:52;;;;;;;13.18;8.25;;;;;;;24.57;31.95;99186.88;5099250;27;20043;-66
2022/06/18 12:03:39;;;;;;;9.18;5.78;;;;;;;24.48;31.58;99177.25;5065334;28;20136;-67